sensor_id;sensor_type;location;lat;lon;timestamp;P1;durP1;ratioP1;P2;durP2;ratioP2
14681;SDS011;7429;52.498;13.480;2022-08-18T00:01:06;11.68;;;9.13;;
14681;SDS011;7429;52.498;13.480;2022-08-18T00:04:12;11.25;;;9.27;;
14681;SDS011;7429;52.498;13.480;2022-08-18T00:07:36;10.95;;;9.85;;
14681;SDS011;7429;52.498;13.480;2022-08-18T00:10:47;12.30;;;9.95;;
14681;SDS011;7429;52.498;13.480;2022-08-18T00:13:50;14.63;;;10.45;;
14681;SDS011;7429;52.498;13.480;2022-08-18T00:16:53;12.85;;;9.38;;
14681;SDS011;7429;52.498;13.480;2022-08-18T00:19:58;12.10;;;10.00;;
14681;SDS011;7429;52.498;13.480;2022-08-18T00:23:01;10.82;;;9.73;;
14681;SDS011;7429;52.498;13.480;2022-08-18T00:26:04;12.13;;;11.05;;
14681;SDS011;7429;52.498;13.480;2022-08-18T00:29:07;13.43;;;10.55;;
14681;SDS011;7429;52.498;13.480;2022-08-18T00:32:12;13.00;;;11.70;;
14681;SDS011;7429;52.498;13.480;2022-08-18T00:35:19;11.77;;;10.57;;
14681;SDS011;7429;52.498;13.480;2022-08-18T00:38:29;11.35;;;10.25;;
14681;SDS011;7429;52.498;13.480;2022-08-18T00:41:32;12.15;;;11.05;;
14681;SDS011;7429;52.498;13.480;2022-08-18T00:44:35;12.07;;;10.88;;
14681;SDS011;7429;52.498;13.480;2022-08-18T00:47:38;16.08;;;10.48;;
14681;SDS011;7429;52.498;13.480;2022-08-18T00:50:46;12.73;;;11.30;;
14681;SDS011;7429;52.498;13.480;2022-08-18T00:53:55;12.13;;;10.93;;
14681;SDS011;7429;52.498;13.480;2022-08-18T00:57:06;12.10;;;10.90;;
14681;SDS011;7429;52.498;13.480;2022-08-18T01:00:10;13.23;;;11.43;;
14681;SDS011;7429;52.498;13.480;2022-08-18T01:03:15;13.70;;;12.30;;
14681;SDS011;7429;52.498;13.480;2022-08-18T01:06:27;15.65;;;13.63;;
14681;SDS011;7429;52.498;13.480;2022-08-18T01:09:39;13.07;;;11.75;;
14681;SDS011;7429;52.498;13.480;2022-08-18T01:12:42;13.73;;;12.43;;
14681;SDS011;7429;52.498;13.480;2022-08-18T01:15:47;12.65;;;11.55;;
14681;SDS011;7429;52.498;13.480;2022-08-18T01:18:50;14.48;;;13.15;;
14681;SDS011;7429;52.498;13.480;2022-08-18T01:22:16;12.77;;;11.35;;
14681;SDS011;7429;52.498;13.480;2022-08-18T01:25:26;14.68;;;13.23;;
14681;SDS011;7429;52.498;13.480;2022-08-18T01:28:47;13.80;;;12.45;;
14681;SDS011;7429;52.498;13.480;2022-08-18T01:31:51;17.10;;;12.20;;
14681;SDS011;7429;52.498;13.480;2022-08-18T01:34:56;16.10;;;11.98;;
14681;SDS011;7429;52.498;13.480;2022-08-18T01:38:01;13.75;;;11.95;;
14681;SDS011;7429;52.498;13.480;2022-08-18T01:41:05;13.43;;;12.18;;
14681;SDS011;7429;52.498;13.480;2022-08-18T01:44:29;14.52;;;13.25;;
14681;SDS011;7429;52.498;13.480;2022-08-18T01:47:34;16.42;;;12.05;;
14681;SDS011;7429;52.498;13.480;2022-08-18T01:50:48;15.52;;;14.23;;
14681;SDS011;7429;52.498;13.480;2022-08-18T01:53:53;13.10;;;11.85;;
14681;SDS011;7429;52.498;13.480;2022-08-18T01:56:58;19.13;;;12.07;;
14681;SDS011;7429;52.498;13.480;2022-08-18T02:00:02;14.02;;;12.77;;
14681;SDS011;7429;52.498;13.480;2022-08-18T02:03:12;16.83;;;13.15;;
14681;SDS011;7429;52.498;13.480;2022-08-18T02:06:16;16.75;;;12.13;;
14681;SDS011;7429;52.498;13.480;2022-08-18T02:09:34;15.25;;;13.20;;
14681;SDS011;7429;52.498;13.480;2022-08-18T02:12:40;14.38;;;13.07;;
14681;SDS011;7429;52.498;13.480;2022-08-18T02:15:43;13.13;;;11.77;;
14681;SDS011;7429;52.498;13.480;2022-08-18T02:18:47;16.63;;;11.77;;
14681;SDS011;7429;52.498;13.480;2022-08-18T02:21:51;13.93;;;12.65;;
14681;SDS011;7429;52.498;13.480;2022-08-18T02:24:55;18.17;;;12.60;;
14681;SDS011;7429;52.498;13.480;2022-08-18T02:28:00;14.15;;;12.35;;
14681;SDS011;7429;52.498;13.480;2022-08-18T02:31:04;16.30;;;13.40;;
14681;SDS011;7429;52.498;13.480;2022-08-18T02:34:11;14.93;;;12.95;;
14681;SDS011;7429;52.498;13.480;2022-08-18T02:37:14;15.07;;;13.63;;
14681;SDS011;7429;52.498;13.480;2022-08-18T02:40:17;15.65;;;14.15;;
14681;SDS011;7429;52.498;13.480;2022-08-18T02:43:22;14.52;;;12.95;;
14681;SDS011;7429;52.498;13.480;2022-08-18T02:46:25;14.02;;;12.60;;
14681;SDS011;7429;52.498;13.480;2022-08-18T02:49:31;15.48;;;14.13;;
14681;SDS011;7429;52.498;13.480;2022-08-18T02:52:37;12.48;;;11.48;;
14681;SDS011;7429;52.498;13.480;2022-08-18T02:55:41;16.45;;;12.48;;
14681;SDS011;7429;52.498;13.480;2022-08-18T02:58:45;14.50;;;13.10;;
14681;SDS011;7429;52.498;13.480;2022-08-18T03:01:49;14.23;;;13.00;;
14681;SDS011;7429;52.498;13.480;2022-08-18T03:04:54;17.83;;;13.25;;
14681;SDS011;7429;52.498;13.480;2022-08-18T03:07:57;15.75;;;13.52;;
14681;SDS011;7429;52.498;13.480;2022-08-18T03:11:00;14.68;;;13.35;;
14681;SDS011;7429;52.498;13.480;2022-08-18T03:14:05;16.30;;;13.70;;
14681;SDS011;7429;52.498;13.480;2022-08-18T03:17:12;12.55;;;11.45;;
14681;SDS011;7429;52.498;13.480;2022-08-18T03:20:15;14.05;;;12.57;;
14681;SDS011;7429;52.498;13.480;2022-08-18T03:23:30;14.48;;;13.10;;
14681;SDS011;7429;52.498;13.480;2022-08-18T03:26:33;16.90;;;14.43;;
14681;SDS011;7429;52.498;13.480;2022-08-18T03:29:38;15.02;;;12.68;;
14681;SDS011;7429;52.498;13.480;2022-08-18T03:32:41;13.98;;;12.50;;
14681;SDS011;7429;52.498;13.480;2022-08-18T03:35:46;17.98;;;16.17;;
14681;SDS011;7429;52.498;13.480;2022-08-18T03:38:49;16.20;;;14.75;;
14681;SDS011;7429;52.498;13.480;2022-08-18T03:41:54;17.00;;;15.35;;
14681;SDS011;7429;52.498;13.480;2022-08-18T03:45:04;18.85;;;17.20;;
14681;SDS011;7429;52.498;13.480;2022-08-18T03:48:18;21.90;;;20.13;;
14681;SDS011;7429;52.498;13.480;2022-08-18T03:51:22;18.23;;;16.48;;
14681;SDS011;7429;52.498;13.480;2022-08-18T03:54:28;22.80;;;20.83;;
14681;SDS011;7429;52.498;13.480;2022-08-18T03:57:34;19.30;;;17.40;;
14681;SDS011;7429;52.498;13.480;2022-08-18T04:00:45;18.80;;;14.88;;
14681;SDS011;7429;52.498;13.480;2022-08-18T04:03:49;20.50;;;17.85;;
14681;SDS011;7429;52.498;13.480;2022-08-18T04:06:55;17.05;;;15.35;;
14681;SDS011;7429;52.498;13.480;2022-08-18T04:10:01;19.70;;;15.73;;
14681;SDS011;7429;52.498;13.480;2022-08-18T04:13:05;18.20;;;16.17;;
14681;SDS011;7429;52.498;13.480;2022-08-18T04:16:09;19.30;;;17.45;;
14681;SDS011;7429;52.498;13.480;2022-08-18T04:19:13;19.10;;;17.02;;
14681;SDS011;7429;52.498;13.480;2022-08-18T04:22:28;21.45;;;17.60;;
14681;SDS011;7429;52.498;13.480;2022-08-18T04:25:33;19.75;;;15.55;;
14681;SDS011;7429;52.498;13.480;2022-08-18T04:28:36;23.80;;;18.80;;
14681;SDS011;7429;52.498;13.480;2022-08-18T04:31:44;17.48;;;15.80;;
14681;SDS011;7429;52.498;13.480;2022-08-18T04:34:47;18.77;;;15.70;;
14681;SDS011;7429;52.498;13.480;2022-08-18T04:37:50;17.70;;;15.93;;
14681;SDS011;7429;52.498;13.480;2022-08-18T04:40:55;18.40;;;16.55;;
14681;SDS011;7429;52.498;13.480;2022-08-18T04:43:59;19.35;;;17.23;;
14681;SDS011;7429;52.498;13.480;2022-08-18T04:47:07;17.73;;;15.00;;
14681;SDS011;7429;52.498;13.480;2022-08-18T04:50:11;20.23;;;17.70;;
14681;SDS011;7429;52.498;13.480;2022-08-18T04:53:14;18.67;;;15.60;;
14681;SDS011;7429;52.498;13.480;2022-08-18T04:56:36;22.35;;;17.35;;
14681;SDS011;7429;52.498;13.480;2022-08-18T04:59:41;17.63;;;16.02;;
14681;SDS011;7429;52.498;13.480;2022-08-18T05:02:47;18.60;;;16.88;;
14681;SDS011;7429;52.498;13.480;2022-08-18T05:05:51;16.73;;;14.90;;
14681;SDS011;7429;52.498;13.480;2022-08-18T05:08:55;17.60;;;15.90;;
14681;SDS011;7429;52.498;13.480;2022-08-18T05:12:01;18.48;;;15.90;;
14681;SDS011;7429;52.498;13.480;2022-08-18T05:15:06;17.35;;;15.57;;
14681;SDS011;7429;52.498;13.480;2022-08-18T05:18:12;21.05;;;19.00;;
14681;SDS011;7429;52.498;13.480;2022-08-18T05:21:18;21.88;;;19.67;;
14681;SDS011;7429;52.498;13.480;2022-08-18T05:24:25;20.70;;;16.83;;
14681;SDS011;7429;52.498;13.480;2022-08-18T05:27:38;20.25;;;16.25;;
14681;SDS011;7429;52.498;13.480;2022-08-18T05:30:44;20.02;;;16.77;;
14681;SDS011;7429;52.498;13.480;2022-08-18T05:33:48;18.48;;;16.58;;
14681;SDS011;7429;52.498;13.480;2022-08-18T05:36:55;18.33;;;14.93;;
14681;SDS011;7429;52.498;13.480;2022-08-18T05:40:17;18.65;;;16.90;;
14681;SDS011;7429;52.498;13.480;2022-08-18T05:43:24;17.40;;;15.23;;
14681;SDS011;7429;52.498;13.480;2022-08-18T05:46:31;19.67;;;14.75;;
14681;SDS011;7429;52.498;13.480;2022-08-18T05:49:42;17.30;;;15.43;;
14681;SDS011;7429;52.498;13.480;2022-08-18T05:52:50;15.93;;;14.32;;
14681;SDS011;7429;52.498;13.480;2022-08-18T05:55:58;17.40;;;15.02;;
14681;SDS011;7429;52.498;13.480;2022-08-18T05:59:29;18.27;;;16.35;;
14681;SDS011;7429;52.498;13.480;2022-08-18T06:02:36;15.73;;;14.10;;
14681;SDS011;7429;52.498;13.480;2022-08-18T06:05:48;15.55;;;14.05;;
14681;SDS011;7429;52.498;13.480;2022-08-18T06:08:57;17.15;;;15.55;;
14681;SDS011;7429;52.498;13.480;2022-08-18T06:12:16;16.75;;;15.05;;
14681;SDS011;7429;52.498;13.480;2022-08-18T06:15:27;16.55;;;14.95;;
14681;SDS011;7429;52.498;13.480;2022-08-18T06:18:44;18.40;;;14.00;;
14681;SDS011;7429;52.498;13.480;2022-08-18T06:21:58;17.50;;;15.65;;
14681;SDS011;7429;52.498;13.480;2022-08-18T06:25:13;17.23;;;15.43;;
14681;SDS011;7429;52.498;13.480;2022-08-18T06:28:24;17.10;;;15.30;;
14681;SDS011;7429;52.498;13.480;2022-08-18T06:31:39;15.05;;;13.45;;
14681;SDS011;7429;52.498;13.480;2022-08-18T06:35:02;20.40;;;18.35;;
14681;SDS011;7429;52.498;13.480;2022-08-18T06:38:25;20.83;;;15.88;;
14681;SDS011;7429;52.498;13.480;2022-08-18T06:41:47;20.67;;;15.45;;
14681;SDS011;7429;52.498;13.480;2022-08-18T06:44:54;16.55;;;14.38;;
14681;SDS011;7429;52.498;13.480;2022-08-18T06:48:03;18.20;;;16.17;;
14681;SDS011;7429;52.498;13.480;2022-08-18T06:51:16;18.33;;;15.02;;
14681;SDS011;7429;52.498;13.480;2022-08-18T06:54:28;16.98;;;13.90;;
14681;SDS011;7429;52.498;13.480;2022-08-18T06:57:33;16.85;;;15.00;;
14681;SDS011;7429;52.498;13.480;2022-08-18T07:00:40;19.05;;;14.07;;
14681;SDS011;7429;52.498;13.480;2022-08-18T07:03:57;15.23;;;13.63;;
14681;SDS011;7429;52.498;13.480;2022-08-18T07:07:04;16.05;;;14.30;;
14681;SDS011;7429;52.498;13.480;2022-08-18T07:10:31;17.50;;;15.85;;
14681;SDS011;7429;52.498;13.480;2022-08-18T07:13:37;16.85;;;15.00;;
14681;SDS011;7429;52.498;13.480;2022-08-18T07:16:44;18.17;;;16.40;;
14681;SDS011;7429;52.498;13.480;2022-08-18T07:20:02;19.05;;;14.55;;
14681;SDS011;7429;52.498;13.480;2022-08-18T07:23:19;15.48;;;13.93;;
14681;SDS011;7429;52.498;13.480;2022-08-18T07:26:28;18.30;;;15.32;;
14681;SDS011;7429;52.498;13.480;2022-08-18T07:29:32;15.57;;;13.60;;
14681;SDS011;7429;52.498;13.480;2022-08-18T07:32:39;17.65;;;14.15;;
14681;SDS011;7429;52.498;13.480;2022-08-18T07:35:48;17.42;;;14.70;;
14681;SDS011;7429;52.498;13.480;2022-08-18T07:38:59;15.73;;;13.82;;
14681;SDS011;7429;52.498;13.480;2022-08-18T07:42:12;15.60;;;13.57;;
14681;SDS011;7429;52.498;13.480;2022-08-18T07:45:40;17.55;;;13.32;;
14681;SDS011;7429;52.498;13.480;2022-08-18T07:48:46;15.73;;;13.75;;
14681;SDS011;7429;52.498;13.480;2022-08-18T07:51:53;20.00;;;14.85;;
14681;SDS011;7429;52.498;13.480;2022-08-18T07:55:05;16.13;;;14.25;;
14681;SDS011;7429;52.498;13.480;2022-08-18T07:58:19;15.25;;;13.25;;
14681;SDS011;7429;52.498;13.480;2022-08-18T08:01:30;15.20;;;13.55;;
14681;SDS011;7429;52.498;13.480;2022-08-18T08:04:41;18.60;;;15.20;;
14681;SDS011;7429;52.498;13.480;2022-08-18T08:07:53;15.90;;;13.95;;
14681;SDS011;7429;52.498;13.480;2022-08-18T08:11:04;19.38;;;13.85;;
14681;SDS011;7429;52.498;13.480;2022-08-18T08:14:22;16.92;;;13.32;;
14681;SDS011;7429;52.498;13.480;2022-08-18T08:17:39;16.23;;;14.50;;
14681;SDS011;7429;52.498;13.480;2022-08-18T08:20:51;15.35;;;13.90;;
14681;SDS011;7429;52.498;13.480;2022-08-18T08:24:00;14.93;;;13.25;;
14681;SDS011;7429;52.498;13.480;2022-08-18T08:27:16;13.98;;;12.57;;
14681;SDS011;7429;52.498;13.480;2022-08-18T08:30:30;16.70;;;12.18;;
14681;SDS011;7429;52.498;13.480;2022-08-18T08:33:43;16.65;;;13.63;;
14681;SDS011;7429;52.498;13.480;2022-08-18T08:36:52;15.90;;;13.68;;
14681;SDS011;7429;52.498;13.480;2022-08-18T08:40:05;18.23;;;14.93;;
14681;SDS011;7429;52.498;13.480;2022-08-18T08:43:16;17.38;;;15.60;;
14681;SDS011;7429;52.498;13.480;2022-08-18T08:46:24;16.70;;;14.80;;
14681;SDS011;7429;52.498;13.480;2022-08-18T08:49:34;17.42;;;13.93;;
14681;SDS011;7429;52.498;13.480;2022-08-18T08:52:43;16.92;;;14.38;;
14681;SDS011;7429;52.498;13.480;2022-08-18T08:55:50;16.58;;;12.75;;
14681;SDS011;7429;52.498;13.480;2022-08-18T08:59:04;14.10;;;12.05;;
14681;SDS011;7429;52.498;13.480;2022-08-18T09:02:25;16.65;;;12.18;;
14681;SDS011;7429;52.498;13.480;2022-08-18T09:05:51;15.32;;;13.80;;
14681;SDS011;7429;52.498;13.480;2022-08-18T09:09:09;16.00;;;13.10;;
14681;SDS011;7429;52.498;13.480;2022-08-18T09:12:40;19.50;;;13.52;;
14681;SDS011;7429;52.498;13.480;2022-08-18T09:16:04;17.35;;;13.50;;
14681;SDS011;7429;52.498;13.480;2022-08-18T09:19:38;18.40;;;14.73;;
14681;SDS011;7429;52.498;13.480;2022-08-18T09:23:01;25.92;;;17.20;;
14681;SDS011;7429;52.498;13.480;2022-08-18T09:26:24;14.50;;;13.05;;
14681;SDS011;7429;52.498;13.480;2022-08-18T09:29:47;15.63;;;13.27;;
14681;SDS011;7429;52.498;13.480;2022-08-18T09:32:59;15.48;;;12.30;;
14681;SDS011;7429;52.498;13.480;2022-08-18T09:36:24;16.83;;;14.00;;
14681;SDS011;7429;52.498;13.480;2022-08-18T09:39:43;13.95;;;12.63;;
14681;SDS011;7429;52.498;13.480;2022-08-18T09:43:15;16.95;;;12.55;;
14681;SDS011;7429;52.498;13.480;2022-08-18T09:46:50;14.40;;;12.88;;
14681;SDS011;7429;52.498;13.480;2022-08-18T09:50:37;15.45;;;12.93;;
14681;SDS011;7429;52.498;13.480;2022-08-18T09:57:26;19.00;;;11.20;;
14681;SDS011;7429;52.498;13.480;2022-08-18T10:00:41;15.75;;;11.70;;
14681;SDS011;7429;52.498;13.480;2022-08-18T10:03:52;16.17;;;12.35;;
14681;SDS011;7429;52.498;13.480;2022-08-18T10:07:29;19.08;;;10.85;;
14681;SDS011;7429;52.498;13.480;2022-08-18T10:10:46;12.00;;;10.75;;
14681;SDS011;7429;52.498;13.480;2022-08-18T10:14:07;17.60;;;10.68;;
14681;SDS011;7429;52.498;13.480;2022-08-18T10:17:32;13.40;;;10.70;;
14681;SDS011;7429;52.498;13.480;2022-08-18T10:20:55;14.82;;;9.98;;
14681;SDS011;7429;52.498;13.480;2022-08-18T10:24:12;11.15;;;9.75;;
14681;SDS011;7429;52.498;13.480;2022-08-18T10:27:47;11.68;;;9.48;;
14681;SDS011;7429;52.498;13.480;2022-08-18T10:34:11;15.07;;;10.75;;
14681;SDS011;7429;52.498;13.480;2022-08-18T10:37:20;10.57;;;9.15;;
14681;SDS011;7429;52.498;13.480;2022-08-18T10:40:28;11.50;;;10.30;;
14681;SDS011;7429;52.498;13.480;2022-08-18T10:43:36;10.13;;;9.07;;
14681;SDS011;7429;52.498;13.480;2022-08-18T10:46:55;14.32;;;10.07;;
14681;SDS011;7429;52.498;13.480;2022-08-18T10:50:02;12.15;;;9.00;;
14681;SDS011;7429;52.498;13.480;2022-08-18T10:53:12;9.57;;;8.68;;
14681;SDS011;7429;52.498;13.480;2022-08-18T10:56:42;17.60;;;8.52;;
14681;SDS011;7429;52.498;13.480;2022-08-18T10:59:53;11.63;;;8.73;;
14681;SDS011;7429;52.498;13.480;2022-08-18T11:03:07;11.10;;;8.68;;
14681;SDS011;7429;52.498;13.480;2022-08-18T11:06:40;10.88;;;8.00;;
14681;SDS011;7429;52.498;13.480;2022-08-18T11:09:50;12.13;;;8.90;;
14681;SDS011;7429;52.498;13.480;2022-08-18T11:13:18;13.15;;;9.43;;
14681;SDS011;7429;52.498;13.480;2022-08-18T11:16:31;9.60;;;7.85;;
14681;SDS011;7429;52.498;13.480;2022-08-18T11:19:45;12.10;;;8.75;;
14681;SDS011;7429;52.498;13.480;2022-08-18T11:22:52;10.38;;;9.10;;
14681;SDS011;7429;52.498;13.480;2022-08-18T11:26:04;10.77;;;9.02;;
14681;SDS011;7429;52.498;13.480;2022-08-18T11:29:24;12.20;;;8.40;;
14681;SDS011;7429;52.498;13.480;2022-08-18T11:32:34;15.02;;;8.52;;
14681;SDS011;7429;52.498;13.480;2022-08-18T11:35:52;8.43;;;7.63;;
14681;SDS011;7429;52.498;13.480;2022-08-18T11:39:01;12.40;;;8.07;;
14681;SDS011;7429;52.498;13.480;2022-08-18T11:42:05;13.02;;;8.63;;
14681;SDS011;7429;52.498;13.480;2022-08-18T11:45:25;11.75;;;10.52;;
14681;SDS011;7429;52.498;13.480;2022-08-18T11:48:36;9.93;;;7.97;;
14681;SDS011;7429;52.498;13.480;2022-08-18T11:51:54;12.10;;;8.27;;
14681;SDS011;7429;52.498;13.480;2022-08-18T11:55:04;11.27;;;10.10;;
14681;SDS011;7429;52.498;13.480;2022-08-18T11:58:36;12.15;;;8.02;;
14681;SDS011;7429;52.498;13.480;2022-08-18T12:01:46;9.75;;;7.25;;
14681;SDS011;7429;52.498;13.480;2022-08-18T12:04:53;8.82;;;6.60;;
14681;SDS011;7429;52.498;13.480;2022-08-18T12:08:17;12.13;;;8.75;;
14681;SDS011;7429;52.498;13.480;2022-08-18T12:11:48;9.68;;;8.10;;
14681;SDS011;7429;52.498;13.480;2022-08-18T12:14:55;12.40;;;7.13;;
14681;SDS011;7429;52.498;13.480;2022-08-18T12:18:20;8.15;;;6.43;;
14681;SDS011;7429;52.498;13.480;2022-08-18T12:21:31;7.03;;;6.32;;
14681;SDS011;7429;52.498;13.480;2022-08-18T12:24:36;7.20;;;6.40;;
14681;SDS011;7429;52.498;13.480;2022-08-18T12:27:40;7.00;;;6.38;;
14681;SDS011;7429;52.498;13.480;2022-08-18T12:30:44;9.68;;;6.10;;
14681;SDS011;7429;52.498;13.480;2022-08-18T12:33:47;7.18;;;6.13;;
14681;SDS011;7429;52.498;13.480;2022-08-18T12:37:03;8.00;;;6.47;;
14681;SDS011;7429;52.498;13.480;2022-08-18T12:40:29;13.98;;;6.30;;
14681;SDS011;7429;52.498;13.480;2022-08-18T12:43:33;8.52;;;5.72;;
14681;SDS011;7429;52.498;13.480;2022-08-18T12:46:38;6.50;;;5.88;;
14681;SDS011;7429;52.498;13.480;2022-08-18T12:49:43;7.90;;;5.47;;
14681;SDS011;7429;52.498;13.480;2022-08-18T12:52:52;6.18;;;5.38;;
14681;SDS011;7429;52.498;13.480;2022-08-18T12:55:56;9.38;;;5.40;;
14681;SDS011;7429;52.498;13.480;2022-08-18T12:59:01;7.53;;;5.10;;
14681;SDS011;7429;52.498;13.480;2022-08-18T13:02:06;5.85;;;5.22;;
14681;SDS011;7429;52.498;13.480;2022-08-18T13:05:12;6.00;;;5.45;;
14681;SDS011;7429;52.498;13.480;2022-08-18T13:08:19;7.28;;;6.47;;
14681;SDS011;7429;52.498;13.480;2022-08-18T13:11:31;7.45;;;5.88;;
14681;SDS011;7429;52.498;13.480;2022-08-18T13:14:34;10.38;;;6.60;;
14681;SDS011;7429;52.498;13.480;2022-08-18T13:17:43;7.32;;;6.78;;
14681;SDS011;7429;52.498;13.480;2022-08-18T13:20:48;8.60;;;6.65;;
14681;SDS011;7429;52.498;13.480;2022-08-18T13:23:53;7.65;;;6.40;;
14681;SDS011;7429;52.498;13.480;2022-08-18T13:27:01;7.00;;;6.18;;
14681;SDS011;7429;52.498;13.480;2022-08-18T13:30:19;11.93;;;6.38;;
14681;SDS011;7429;52.498;13.480;2022-08-18T13:33:32;13.25;;;6.75;;
14681;SDS011;7429;52.498;13.480;2022-08-18T13:36:55;9.35;;;8.23;;
14681;SDS011;7429;52.498;13.480;2022-08-18T13:39:59;8.95;;;7.22;;
14681;SDS011;7429;52.498;13.480;2022-08-18T13:43:04;7.57;;;5.85;;
14681;SDS011;7429;52.498;13.480;2022-08-18T13:46:10;9.13;;;7.68;;
14681;SDS011;7429;52.498;13.480;2022-08-18T13:49:17;12.18;;;6.47;;
14681;SDS011;7429;52.498;13.480;2022-08-18T13:52:30;9.32;;;6.68;;
14681;SDS011;7429;52.498;13.480;2022-08-18T13:55:37;9.50;;;8.15;;
14681;SDS011;7429;52.498;13.480;2022-08-18T13:58:40;12.93;;;7.78;;
14681;SDS011;7429;52.498;13.480;2022-08-18T14:01:54;9.68;;;7.72;;
14681;SDS011;7429;52.498;13.480;2022-08-18T14:04:57;9.32;;;8.40;;
14681;SDS011;7429;52.498;13.480;2022-08-18T14:08:00;10.57;;;8.32;;
14681;SDS011;7429;52.498;13.480;2022-08-18T14:11:05;17.75;;;8.27;;
14681;SDS011;7429;52.498;13.480;2022-08-18T14:14:08;13.10;;;9.27;;
14681;SDS011;7429;52.498;13.480;2022-08-18T14:17:11;11.07;;;8.52;;
14681;SDS011;7429;52.498;13.480;2022-08-18T14:20:14;12.48;;;8.98;;
14681;SDS011;7429;52.498;13.480;2022-08-18T14:23:37;11.57;;;8.48;;
14681;SDS011;7429;52.498;13.480;2022-08-18T14:27:15;8.88;;;7.90;;
14681;SDS011;7429;52.498;13.480;2022-08-18T14:30:17;12.52;;;7.72;;
14681;SDS011;7429;52.498;13.480;2022-08-18T14:33:22;10.18;;;7.97;;
14681;SDS011;7429;52.498;13.480;2022-08-18T14:36:47;9.95;;;8.40;;
14681;SDS011;7429;52.498;13.480;2022-08-18T14:39:53;11.88;;;7.82;;
14681;SDS011;7429;52.498;13.480;2022-08-18T14:42:58;11.48;;;9.18;;
14681;SDS011;7429;52.498;13.480;2022-08-18T14:46:01;11.10;;;9.93;;
14681;SDS011;7429;52.498;13.480;2022-08-18T14:49:07;9.38;;;8.40;;
14681;SDS011;7429;52.498;13.480;2022-08-18T14:52:10;10.35;;;8.43;;
14681;SDS011;7429;52.498;13.480;2022-08-18T14:55:15;11.30;;;7.93;;
14681;SDS011;7429;52.498;13.480;2022-08-18T14:58:21;10.43;;;8.38;;
14681;SDS011;7429;52.498;13.480;2022-08-18T15:01:28;9.55;;;8.52;;
14681;SDS011;7429;52.498;13.480;2022-08-18T15:04:35;8.15;;;7.35;;
14681;SDS011;7429;52.498;13.480;2022-08-18T15:07:56;10.38;;;7.22;;
14681;SDS011;7429;52.498;13.480;2022-08-18T15:11:02;10.60;;;7.10;;
14681;SDS011;7429;52.498;13.480;2022-08-18T15:14:13;11.13;;;7.55;;
14681;SDS011;7429;52.498;13.480;2022-08-18T15:17:19;12.43;;;9.00;;
14681;SDS011;7429;52.498;13.480;2022-08-18T15:20:23;14.68;;;7.50;;
14681;SDS011;7429;52.498;13.480;2022-08-18T15:23:30;7.60;;;6.90;;
14681;SDS011;7429;52.498;13.480;2022-08-18T15:26:52;10.32;;;7.25;;
14681;SDS011;7429;52.498;13.480;2022-08-18T15:30:02;8.70;;;7.28;;
14681;SDS011;7429;52.498;13.480;2022-08-18T15:33:09;10.35;;;7.65;;
14681;SDS011;7429;52.498;13.480;2022-08-18T15:36:15;9.98;;;6.82;;
14681;SDS011;7429;52.498;13.480;2022-08-18T15:39:29;13.00;;;6.95;;
14681;SDS011;7429;52.498;13.480;2022-08-18T15:42:33;11.05;;;8.10;;
14681;SDS011;7429;52.498;13.480;2022-08-18T15:45:39;11.80;;;8.18;;
14681;SDS011;7429;52.498;13.480;2022-08-18T15:48:58;9.90;;;9.00;;
14681;SDS011;7429;52.498;13.480;2022-08-18T15:52:01;11.50;;;8.18;;
14681;SDS011;7429;52.498;13.480;2022-08-18T15:55:12;11.95;;;9.50;;
14681;SDS011;7429;52.498;13.480;2022-08-18T15:58:15;10.23;;;9.23;;
14681;SDS011;7429;52.498;13.480;2022-08-18T16:01:24;9.13;;;8.18;;
14681;SDS011;7429;52.498;13.480;2022-08-18T16:04:33;9.70;;;8.82;;
14681;SDS011;7429;52.498;13.480;2022-08-18T16:07:40;11.73;;;9.18;;
14681;SDS011;7429;52.498;13.480;2022-08-18T16:10:46;13.38;;;8.35;;
14681;SDS011;7429;52.498;13.480;2022-08-18T16:13:50;9.43;;;8.23;;
14681;SDS011;7429;52.498;13.480;2022-08-18T16:16:56;10.90;;;8.57;;
14681;SDS011;7429;52.498;13.480;2022-08-18T16:20:00;11.18;;;8.30;;
14681;SDS011;7429;52.498;13.480;2022-08-18T16:23:04;9.57;;;8.68;;
14681;SDS011;7429;52.498;13.480;2022-08-18T16:26:08;16.80;;;8.35;;
14681;SDS011;7429;52.498;13.480;2022-08-18T16:29:19;10.63;;;9.02;;
14681;SDS011;7429;52.498;13.480;2022-08-18T16:32:24;12.85;;;8.43;;
14681;SDS011;7429;52.498;13.480;2022-08-18T16:35:27;17.83;;;11.10;;
14681;SDS011;7429;52.498;13.480;2022-08-18T16:38:31;22.27;;;14.20;;
14681;SDS011;7429;52.498;13.480;2022-08-18T16:41:35;20.42;;;18.40;;
14681;SDS011;7429;52.498;13.480;2022-08-18T16:44:39;20.02;;;15.13;;
14681;SDS011;7429;52.498;13.480;2022-08-18T16:47:43;28.42;;;18.60;;
14681;SDS011;7429;52.498;13.480;2022-08-18T16:50:46;20.48;;;15.70;;
14681;SDS011;7429;52.498;13.480;2022-08-18T16:53:52;19.15;;;15.73;;
14681;SDS011;7429;52.498;13.480;2022-08-18T16:56:55;19.20;;;15.20;;
14681;SDS011;7429;52.498;13.480;2022-08-18T16:59:58;18.25;;;16.20;;
14681;SDS011;7429;52.498;13.480;2022-08-18T17:03:20;20.30;;;15.75;;
14681;SDS011;7429;52.498;13.480;2022-08-18T17:06:41;16.48;;;14.73;;
14681;SDS011;7429;52.498;13.480;2022-08-18T17:09:48;22.73;;;17.13;;
14681;SDS011;7429;52.498;13.480;2022-08-18T17:12:52;19.75;;;17.73;;
14681;SDS011;7429;52.498;13.480;2022-08-18T17:15:56;23.70;;;21.50;;
14681;SDS011;7429;52.498;13.480;2022-08-18T17:19:03;26.27;;;23.88;;
14681;SDS011;7429;52.498;13.480;2022-08-18T17:22:08;21.13;;;18.13;;
14681;SDS011;7429;52.498;13.480;2022-08-18T17:25:11;21.55;;;19.23;;
14681;SDS011;7429;52.498;13.480;2022-08-18T17:28:23;21.50;;;19.60;;
14681;SDS011;7429;52.498;13.480;2022-08-18T17:31:41;22.45;;;20.52;;
14681;SDS011;7429;52.498;13.480;2022-08-18T17:34:53;18.10;;;16.17;;
14681;SDS011;7429;52.498;13.480;2022-08-18T17:38:06;16.95;;;15.45;;
14681;SDS011;7429;52.498;13.480;2022-08-18T17:41:15;17.95;;;16.20;;
14681;SDS011;7429;52.498;13.480;2022-08-18T17:44:20;17.63;;;15.45;;
14681;SDS011;7429;52.498;13.480;2022-08-18T17:47:33;16.83;;;15.05;;
14681;SDS011;7429;52.498;13.480;2022-08-18T17:50:45;18.60;;;16.80;;
14681;SDS011;7429;52.498;13.480;2022-08-18T17:54:14;18.88;;;16.98;;
14681;SDS011;7429;52.498;13.480;2022-08-18T17:57:25;17.58;;;15.82;;
14681;SDS011;7429;52.498;13.480;2022-08-18T18:04:35;17.33;;;15.77;;
14681;SDS011;7429;52.498;13.480;2022-08-18T18:08:21;18.38;;;15.88;;
14681;SDS011;7429;52.498;13.480;2022-08-18T18:12:43;16.48;;;14.93;;
14681;SDS011;7429;52.498;13.480;2022-08-18T18:16:51;17.45;;;15.70;;
14681;SDS011;7429;52.498;13.480;2022-08-18T18:20:57;21.38;;;16.70;;
14681;SDS011;7429;52.498;13.480;2022-08-18T18:24:12;17.85;;;16.05;;
14681;SDS011;7429;52.498;13.480;2022-08-18T18:27:30;16.92;;;15.43;;
14681;SDS011;7429;52.498;13.480;2022-08-18T18:30:37;16.38;;;14.98;;
14681;SDS011;7429;52.498;13.480;2022-08-18T18:33:40;17.92;;;16.23;;
14681;SDS011;7429;52.498;13.480;2022-08-18T18:36:45;18.67;;;17.10;;
14681;SDS011;7429;52.498;13.480;2022-08-18T18:39:54;17.55;;;15.95;;
14681;SDS011;7429;52.498;13.480;2022-08-18T18:46:25;19.73;;;18.00;;
14681;SDS011;7429;52.498;13.480;2022-08-18T18:49:34;17.20;;;15.68;;
14681;SDS011;7429;52.498;13.480;2022-08-18T18:52:47;17.63;;;16.05;;
14681;SDS011;7429;52.498;13.480;2022-08-18T18:56:08;17.25;;;15.93;;
14681;SDS011;7429;52.498;13.480;2022-08-18T18:59:21;18.33;;;16.58;;